createdAt,value
2017-10-05T00:00:38.689Z,961.43
2017-10-05T00:01:38.709Z,961.45
2017-10-05T00:02:38.732Z,961.47
2017-10-05T00:03:38.751Z,961.46
2017-10-05T00:04:38.771Z,961.49
2017-10-05T00:05:38.791Z,961.47
2017-10-05T00:06:38.811Z,961.45
2017-10-05T00:07:38.837Z,961.46
2017-10-05T00:08:38.853Z,961.46
2017-10-05T00:09:38.875Z,961.43
2017-10-05T00:10:38.896Z,961.42
2017-10-05T00:11:38.915Z,961.43
2017-10-05T00:12:38.943Z,961.37
2017-10-05T00:13:38.960Z,961.36
2017-10-05T00:14:38.976Z,961.37
2017-10-05T00:15:39.000Z,961.38
2017-10-05T00:16:39.018Z,961.36
2017-10-05T00:17:39.039Z,961.36
2017-10-05T00:18:39.058Z,961.41
2017-10-05T00:19:39.079Z,961.36
2017-10-05T00:20:39.106Z,961.36
2017-10-05T00:21:39.119Z,961.42
2017-10-05T00:22:39.141Z,961.37
2017-10-05T00:23:39.167Z,961.34
2017-10-05T00:24:39.180Z,961.35
2017-10-05T00:25:39.201Z,961.34
2017-10-05T00:26:39.221Z,961.33
2017-10-05T00:27:39.291Z,961.35
2017-10-05T00:28:39.261Z,961.37
2017-10-05T00:30:04.985Z,961.31
2017-10-05T00:30:39.301Z,961.31
2017-10-05T00:31:39.323Z,961.29
2017-10-05T00:32:39.344Z,961.25
2017-10-05T00:33:39.368Z,961.25
2017-10-05T00:34:39.382Z,961.27
2017-10-05T00:35:39.429Z,961.28
2017-10-05T00:36:39.423Z,961.21
2017-10-05T00:37:39.443Z,961.25
2017-10-05T00:38:39.468Z,961.22
2017-10-05T00:39:39.486Z,961.24
2017-10-05T00:40:39.505Z,961.2
2017-10-05T00:41:39.526Z,961.22
2017-10-05T00:42:39.596Z,961.17
2017-10-05T00:43:39.566Z,961.16
2017-10-05T00:44:39.588Z,961.15
2017-10-05T00:45:39.606Z,961.12
2017-10-05T00:46:39.627Z,961.09
2017-10-05T00:47:39.648Z,961.04
2017-10-05T00:48:39.670Z,961.02
2017-10-05T00:49:39.689Z,960.93
2017-10-05T00:50:39.710Z,960.94
2017-10-05T00:51:39.730Z,960.91
2017-10-05T00:52:39.750Z,960.94
2017-10-05T00:53:39.786Z,960.87
2017-10-05T00:54:39.790Z,960.9
2017-10-05T00:55:39.812Z,960.91
2017-10-05T00:56:39.831Z,960.86
2017-10-05T00:57:39.902Z,960.84
2017-10-05T00:58:39.874Z,960.83
2017-10-05T00:59:39.893Z,960.79
2017-10-05T01:00:39.917Z,960.81
2017-10-05T01:01:39.940Z,960.79
2017-10-05T01:02:39.956Z,960.75
2017-10-05T01:03:39.980Z,960.66
2017-10-05T01:04:39.996Z,960.66
2017-10-05T01:05:40.035Z,960.62
2017-10-05T01:06:40.038Z,960.58
2017-10-05T01:07:40.056Z,960.54
2017-10-05T01:08:40.084Z,960.56
2017-10-05T01:09:40.101Z,960.57
2017-10-05T01:10:40.120Z,960.53
2017-10-05T01:11:40.139Z,960.53
2017-10-05T01:12:40.213Z,960.47
2017-10-05T01:13:40.182Z,960.48
2017-10-05T01:14:40.202Z,960.45
2017-10-05T01:15:40.224Z,960.38
2017-10-05T01:16:40.244Z,960.39
2017-10-05T01:17:40.264Z,960.36
2017-10-05T01:18:40.285Z,960.3
2017-10-05T01:19:40.304Z,960.32
2017-10-05T01:20:40.326Z,960.36
2017-10-05T01:21:40.345Z,960.34
2017-10-05T01:22:40.367Z,960.33
2017-10-05T01:23:40.387Z,960.26
2017-10-05T01:24:40.410Z,960.28
2017-10-05T01:25:40.429Z,960.3
2017-10-05T01:26:40.448Z,960.25
2017-10-05T01:27:40.474Z,960.24
2017-10-05T01:28:40.491Z,960.19
2017-10-05T01:29:40.511Z,960.19
2017-10-05T01:30:40.582Z,960.21
2017-10-05T01:31:40.628Z,960.22
2017-10-05T01:32:40.639Z,960.19
2017-10-05T01:33:40.597Z,960.2
2017-10-05T01:34:40.614Z,960.2
2017-10-05T01:35:40.635Z,960.16
2017-10-05T01:36:40.664Z,960.15
2017-10-05T01:37:40.683Z,960.17
2017-10-05T01:38:40.697Z,960.1
2017-10-05T01:39:40.718Z,960.13
2017-10-05T01:40:40.739Z,960.08
2017-10-05T01:41:40.767Z,960.06
2017-10-05T01:42:40.778Z,960.04
2017-10-05T01:43:40.804Z,960.02
2017-10-05T01:44:40.826Z,960.01
2017-10-05T01:45:40.899Z,959.95
2017-10-05T01:46:40.867Z,959.97
2017-10-05T01:47:40.884Z,959.94
2017-10-05T01:48:40.906Z,959.94
2017-10-05T01:49:40.926Z,959.91
2017-10-05T01:50:40.954Z,959.9
2017-10-05T01:51:40.967Z,959.87
2017-10-05T01:52:40.990Z,959.87
2017-10-05T01:53:41.008Z,959.85
2017-10-05T01:54:41.030Z,959.87
2017-10-05T01:55:41.048Z,959.84
2017-10-05T01:56:41.069Z,959.84
2017-10-05T01:57:41.092Z,959.81
2017-10-05T01:58:41.111Z,959.82
2017-10-05T01:59:41.131Z,959.81
2017-10-05T02:00:41.153Z,959.78
2017-10-05T02:01:41.223Z,959.78
2017-10-05T02:02:41.193Z,959.76
2017-10-05T02:03:41.214Z,959.73
2017-10-05T02:04:41.235Z,959.74
2017-10-05T02:05:41.254Z,959.75
2017-10-05T02:06:41.276Z,959.69
2017-10-05T02:07:41.298Z,959.64
2017-10-05T02:08:41.320Z,959.64
2017-10-05T02:09:41.364Z,959.64
2017-10-05T02:10:41.365Z,959.62
2017-10-05T02:11:41.381Z,959.58
2017-10-05T02:12:41.405Z,959.58
2017-10-05T02:13:41.421Z,959.56
2017-10-05T02:14:41.443Z,959.53
2017-10-05T02:15:41.463Z,959.52
2017-10-05T02:16:41.485Z,959.52
2017-10-05T02:17:41.562Z,959.43
2017-10-05T02:18:41.526Z,959.45
2017-10-05T02:19:41.547Z,959.45
2017-10-05T02:20:41.566Z,959.43
2017-10-05T02:21:41.587Z,959.41
2017-10-05T02:22:41.608Z,959.39
2017-10-05T02:23:41.631Z,959.36
2017-10-05T02:24:41.656Z,959.35
2017-10-05T02:25:41.670Z,959.34
2017-10-05T02:26:41.692Z,959.36
2017-10-05T02:27:41.712Z,959.37
2017-10-05T02:28:41.737Z,959.3
2017-10-05T02:29:41.756Z,959.29
2017-10-05T02:30:41.776Z,959.28
2017-10-05T02:31:41.797Z,959.26
2017-10-05T02:32:41.918Z,959.23
2017-10-05T02:33:41.837Z,959.22
2017-10-05T02:34:41.859Z,959.23
2017-10-05T02:35:41.880Z,959.19
2017-10-05T02:36:41.900Z,959.2
2017-10-05T02:37:41.922Z,959.23
2017-10-05T02:38:41.941Z,959.16
2017-10-05T02:39:41.969Z,959.2
2017-10-05T02:40:41.983Z,959.17
2017-10-05T02:41:42.004Z,959.16
2017-10-05T02:42:42.026Z,959.14
2017-10-05T02:43:42.044Z,959.15
2017-10-05T02:44:42.067Z,959.12
2017-10-05T02:45:42.092Z,959.15
2017-10-05T02:46:42.108Z,959.17
2017-10-05T02:47:42.184Z,959.19
2017-10-05T02:48:42.152Z,959.16
2017-10-05T02:49:42.172Z,959.17
2017-10-05T02:50:42.200Z,959.15
2017-10-05T02:51:42.215Z,959.14
2017-10-05T02:52:42.238Z,959.14
2017-10-05T02:53:42.268Z,959.11
2017-10-05T02:54:42.278Z,959.09
2017-10-05T02:55:42.304Z,959.07
2017-10-05T02:56:42.319Z,959.07
2017-10-05T02:57:42.344Z,959
2017-10-05T02:58:42.361Z,958.99
2017-10-05T02:59:42.383Z,958.98
2017-10-05T03:00:42.409Z,958.98
2017-10-05T03:01:42.426Z,958.95
2017-10-05T03:02:42.499Z,958.96
2017-10-05T03:03:42.468Z,958.91
2017-10-05T03:04:42.494Z,958.94
2017-10-05T03:05:42.510Z,958.94
2017-10-05T03:06:42.531Z,958.9
2017-10-05T03:07:42.554Z,958.91
2017-10-05T03:08:42.577Z,958.9
2017-10-05T03:09:42.597Z,958.9
2017-10-05T03:10:42.616Z,958.87
2017-10-05T03:11:42.645Z,958.82
2017-10-05T03:12:42.658Z,958.81
2017-10-05T03:13:42.681Z,958.79
2017-10-05T03:14:42.702Z,958.72
2017-10-05T03:15:42.723Z,958.69
2017-10-05T03:16:42.744Z,958.66
2017-10-05T03:17:42.770Z,958.62
2017-10-05T03:18:42.839Z,958.52
2017-10-05T03:19:42.810Z,958.47
2017-10-05T03:20:42.831Z,958.48
2017-10-05T03:21:42.853Z,958.41
2017-10-05T03:22:42.874Z,958.4
2017-10-05T03:23:42.898Z,958.35
2017-10-05T03:24:42.917Z,958.36
2017-10-05T03:25:42.939Z,958.36
2017-10-05T03:26:42.959Z,958.39
2017-10-05T03:27:42.985Z,958.33
2017-10-05T03:28:43.008Z,958.34
2017-10-05T03:29:43.024Z,958.31
2017-10-05T03:30:43.067Z,958.31
2017-10-05T03:31:43.069Z,958.29
2017-10-05T03:32:43.092Z,958.25
2017-10-05T03:33:43.168Z,958.28
2017-10-05T03:34:43.130Z,958.28
2017-10-05T03:35:43.152Z,958.29
2017-10-05T03:36:43.173Z,958.32
2017-10-05T03:37:43.195Z,958.29
2017-10-05T03:38:43.219Z,958.29
2017-10-05T03:39:43.238Z,958.2
2017-10-05T03:40:43.259Z,958.19
2017-10-05T03:41:43.281Z,958.21
2017-10-05T03:42:43.306Z,958.17
2017-10-05T03:43:43.323Z,958.14
2017-10-05T03:44:43.342Z,958.08
2017-10-05T03:45:43.363Z,958.09
2017-10-05T03:46:43.386Z,958.06
2017-10-05T03:47:43.407Z,958.02
2017-10-05T03:48:43.480Z,957.99
2017-10-05T03:49:43.450Z,957.96
2017-10-05T03:50:43.470Z,957.96
2017-10-05T03:51:43.492Z,957.94
2017-10-05T03:52:43.518Z,957.88
2017-10-05T03:53:43.533Z,957.91
2017-10-05T03:54:43.556Z,957.85
2017-10-05T03:55:43.579Z,957.87
2017-10-05T03:56:43.595Z,957.82
2017-10-05T03:57:43.618Z,957.76
2017-10-05T03:58:43.639Z,957.77
2017-10-05T03:59:43.658Z,957.68
2017-10-05T04:00:43.682Z,957.67
2017-10-05T04:01:43.700Z,957.67
2017-10-05T04:02:43.721Z,957.66
2017-10-05T04:03:43.794Z,957.61
2017-10-05T04:04:43.766Z,957.56
2017-10-05T04:05:43.787Z,957.53
2017-10-05T04:06:43.806Z,957.55
2017-10-05T04:07:43.825Z,957.51
2017-10-05T04:08:43.857Z,957.51
2017-10-05T04:09:43.869Z,957.53
2017-10-05T04:10:43.892Z,957.46
2017-10-05T04:11:43.910Z,957.48
2017-10-05T04:12:43.934Z,957.4
2017-10-05T04:13:43.950Z,957.44
2017-10-05T04:14:43.970Z,957.39
2017-10-05T04:15:43.992Z,957.4
2017-10-05T04:16:44.018Z,957.41
2017-10-05T04:17:44.038Z,957.39
2017-10-05T04:18:44.105Z,957.42
2017-10-05T04:19:44.081Z,957.38
2017-10-05T04:20:44.097Z,957.33
2017-10-05T04:21:44.117Z,957.31
2017-10-05T04:22:44.138Z,957.29
2017-10-05T04:23:44.158Z,957.34
2017-10-05T04:24:44.179Z,957.28
2017-10-05T04:25:44.200Z,957.27
2017-10-05T04:26:44.225Z,957.28
2017-10-05T04:27:44.243Z,957.34
2017-10-05T04:28:44.262Z,957.25
2017-10-05T04:29:44.292Z,957.24
2017-10-05T04:30:44.305Z,957.24
2017-10-05T04:31:44.326Z,957.24
2017-10-05T04:32:44.345Z,957.17
2017-10-05T04:33:44.416Z,957.2
2017-10-05T04:34:44.388Z,957.16
2017-10-05T04:35:44.415Z,957.15
2017-10-05T04:36:44.428Z,957.13
2017-10-05T04:37:44.448Z,957.09
2017-10-05T04:38:44.469Z,957.17
2017-10-05T04:39:44.489Z,957.09
2017-10-05T04:40:44.512Z,957.1
2017-10-05T04:41:44.537Z,957.11
2017-10-05T04:42:44.552Z,957.05
2017-10-05T04:43:44.570Z,957.05
2017-10-05T04:44:44.598Z,957.08
2017-10-05T04:45:44.614Z,957.05
2017-10-05T04:46:44.632Z,956.99
2017-10-05T04:47:44.658Z,957.01
2017-10-05T04:48:44.730Z,957.01
2017-10-05T04:49:44.696Z,957
2017-10-05T04:50:44.720Z,957
2017-10-05T04:51:44.736Z,956.99
2017-10-05T04:52:44.757Z,957.01
2017-10-05T04:53:44.780Z,956.98
2017-10-05T04:54:44.799Z,956.99
2017-10-05T04:55:44.821Z,956.97
2017-10-05T04:56:44.843Z,956.95
2017-10-05T04:57:44.866Z,956.94
2017-10-05T04:58:44.883Z,956.92
2017-10-05T04:59:44.905Z,956.91
2017-10-05T05:00:44.925Z,956.93
2017-10-05T05:01:44.944Z,956.89
2017-10-05T05:02:44.988Z,956.84
2017-10-05T05:03:45.062Z,956.87
2017-10-05T05:04:45.015Z,956.84
2017-10-05T05:05:45.030Z,956.87
2017-10-05T05:06:45.048Z,956.83
2017-10-05T05:07:45.068Z,956.91
2017-10-05T05:08:45.090Z,956.79
2017-10-05T05:09:45.109Z,956.76
2017-10-05T05:10:45.130Z,956.73
2017-10-05T05:11:45.151Z,956.74
2017-10-05T05:12:45.174Z,956.75
2017-10-05T05:13:45.192Z,956.78
2017-10-05T05:14:45.213Z,956.75
2017-10-05T05:15:45.236Z,956.77
2017-10-05T05:16:45.254Z,956.8
2017-10-05T05:17:45.274Z,956.83
2017-10-05T05:18:45.295Z,956.79
2017-10-05T05:19:45.320Z,956.83
2017-10-05T05:20:45.386Z,956.81
2017-10-05T05:21:45.356Z,956.77
2017-10-05T05:22:45.376Z,956.73
2017-10-05T05:23:45.397Z,956.78
2017-10-05T05:24:45.417Z,956.79
2017-10-05T05:25:45.440Z,956.73
2017-10-05T05:26:45.460Z,956.71
2017-10-05T05:27:45.481Z,956.72
2017-10-05T05:28:45.501Z,956.72
2017-10-05T05:29:45.527Z,956.71
2017-10-05T05:30:45.544Z,956.73
2017-10-05T05:31:45.562Z,956.71
2017-10-05T05:32:45.583Z,956.68
2017-10-05T05:33:45.605Z,956.67
2017-10-05T05:34:45.633Z,956.67
2017-10-05T05:35:45.694Z,956.6
2017-10-05T05:36:45.668Z,956.66
2017-10-05T05:37:45.685Z,956.66
2017-10-05T05:38:45.706Z,956.63
2017-10-05T05:39:45.727Z,956.62
2017-10-05T05:40:45.747Z,956.63
2017-10-05T05:41:45.851Z,956.58
2017-10-05T05:42:45.800Z,956.56
2017-10-05T05:43:45.808Z,956.54
2017-10-05T05:44:45.830Z,956.55
2017-10-05T05:45:45.853Z,956.55
2017-10-05T05:46:45.877Z,956.54
2017-10-05T05:47:45.896Z,956.53
2017-10-05T05:48:45.913Z,956.53
2017-10-05T05:49:45.932Z,956.51
2017-10-05T05:50:45.953Z,956.5
2017-10-05T05:51:45.973Z,956.5
2017-10-05T05:52:45.993Z,956.53
2017-10-05T05:53:46.015Z,956.57
2017-10-05T05:54:46.036Z,956.52
2017-10-05T05:55:46.058Z,956.52
2017-10-05T05:56:46.079Z,956.53
2017-10-05T05:57:46.096Z,956.53
2017-10-05T05:58:46.120Z,956.51
2017-10-05T05:59:46.140Z,956.48
2017-10-05T06:00:46.157Z,956.48
2017-10-05T06:01:46.177Z,956.46
2017-10-05T06:02:46.202Z,956.5
2017-10-05T06:03:46.219Z,956.49
2017-10-05T06:04:46.240Z,956.45
2017-10-05T06:05:46.260Z,956.43
2017-10-05T06:06:46.282Z,956.43
2017-10-05T06:07:46.350Z,956.39
2017-10-05T06:08:46.322Z,956.37
2017-10-05T06:09:46.343Z,956.38
2017-10-05T06:10:46.363Z,956.36
2017-10-05T06:11:46.384Z,956.31
2017-10-05T06:12:46.404Z,956.28
2017-10-05T06:13:46.425Z,956.32
2017-10-05T06:14:46.448Z,956.28
2017-10-05T06:15:46.466Z,956.28
2017-10-05T06:16:46.493Z,956.25
2017-10-05T06:17:46.507Z,956.29
2017-10-05T06:18:46.528Z,956.23
2017-10-05T06:19:46.548Z,956.23
2017-10-05T06:20:46.588Z,956.21
2017-10-05T06:21:46.589Z,956.24
2017-10-05T06:22:46.609Z,956.21
2017-10-05T06:23:46.631Z,956.21
2017-10-05T06:24:46.702Z,956.23
2017-10-05T06:25:46.673Z,956.23
2017-10-05T06:26:46.696Z,956.17
2017-10-05T06:27:46.712Z,956.17
2017-10-05T06:28:46.733Z,956.17
2017-10-05T06:29:46.758Z,956.12
2017-10-05T06:30:46.776Z,956.08
2017-10-05T06:31:46.796Z,956.09
2017-10-05T06:32:46.817Z,956.04
2017-10-05T06:33:46.838Z,956.05
2017-10-05T06:34:46.858Z,956
2017-10-05T06:35:46.887Z,955.97
2017-10-05T06:36:46.900Z,956.05
2017-10-05T06:37:46.922Z,955.93
2017-10-05T06:38:46.944Z,956.01
2017-10-05T06:39:46.968Z,956.01
2017-10-05T06:40:46.984Z,955.97
2017-10-05T06:41:47.005Z,956.01
2017-10-05T06:42:47.027Z,955.95
2017-10-05T06:43:47.047Z,955.93
2017-10-05T06:44:47.068Z,955.93
2017-10-05T06:45:47.088Z,955.89
2017-10-05T06:46:47.109Z,955.87
2017-10-05T06:47:47.130Z,955.92
2017-10-05T06:48:47.158Z,955.93
2017-10-05T06:49:47.172Z,955.9
2017-10-05T06:50:47.192Z,955.91
2017-10-05T06:51:47.215Z,955.89
2017-10-05T06:52:47.235Z,955.87
2017-10-05T06:53:47.262Z,955.89
2017-10-05T06:54:47.275Z,955.94
2017-10-05T06:55:47.297Z,955.92
2017-10-05T06:56:47.327Z,955.91
2017-10-05T06:57:47.340Z,955.96
2017-10-05T06:58:47.379Z,955.94
2017-10-05T06:59:47.382Z,955.94
2017-10-05T07:00:47.402Z,955.92
2017-10-05T07:01:47.474Z,955.94
2017-10-05T07:02:47.449Z,955.88
2017-10-05T07:03:47.466Z,955.91
2017-10-05T07:04:47.489Z,955.96
2017-10-05T07:05:47.508Z,955.94
2017-10-05T07:06:47.531Z,955.93
2017-10-05T07:07:47.553Z,955.92
2017-10-05T07:08:47.583Z,955.91
2017-10-05T07:09:47.610Z,955.95
2017-10-05T07:10:47.615Z,955.9
2017-10-05T07:11:47.637Z,955.97
2017-10-05T07:12:47.660Z,955.92
2017-10-05T07:13:47.680Z,955.95
2017-10-05T07:14:47.703Z,955.93
2017-10-05T07:15:47.774Z,955.86
2017-10-05T07:16:47.747Z,955.87
2017-10-05T07:17:47.768Z,955.85
2017-10-05T07:18:47.791Z,955.85
2017-10-05T07:19:47.812Z,955.88
2017-10-05T07:20:47.885Z,955.83
2017-10-05T07:21:47.859Z,955.76
2017-10-05T07:22:47.874Z,955.84
2017-10-05T07:23:47.896Z,955.74
2017-10-05T07:24:47.918Z,955.75
2017-10-05T07:25:47.942Z,955.78
2017-10-05T07:26:47.961Z,955.78
2017-10-05T07:27:47.983Z,955.72
2017-10-05T07:28:48.004Z,955.62
2017-10-05T07:29:48.027Z,955.65
2017-10-05T07:30:48.048Z,955.54
2017-10-05T07:31:48.070Z,955.67
2017-10-05T07:32:48.093Z,955.56
2017-10-05T07:33:48.113Z,955.71
2017-10-05T07:34:48.135Z,955.58
2017-10-05T07:35:48.206Z,955.66
2017-10-05T07:36:48.182Z,955.6
2017-10-05T07:37:48.207Z,955.64
2017-10-05T07:38:48.224Z,955.63
2017-10-05T07:39:48.245Z,955.62
2017-10-05T07:40:48.321Z,955.63
2017-10-05T07:41:48.309Z,955.57
2017-10-05T07:42:48.313Z,955.58
2017-10-05T07:43:48.334Z,955.57
2017-10-05T07:44:48.359Z,955.49
2017-10-05T07:45:48.378Z,955.64
2017-10-05T07:46:48.402Z,955.52
2017-10-05T07:47:48.423Z,955.56
2017-10-05T07:48:48.445Z,955.6
2017-10-05T07:49:48.469Z,955.78
2017-10-05T07:50:48.490Z,955.7
2017-10-05T07:51:48.513Z,955.59
2017-10-05T07:52:48.535Z,955.57
2017-10-05T07:53:48.558Z,955.59
2017-10-05T07:54:48.583Z,955.66
2017-10-05T07:55:48.602Z,955.62
2017-10-05T07:56:48.684Z,955.53
2017-10-05T07:57:48.654Z,955.55
2017-10-05T07:58:48.673Z,955.57
2017-10-05T07:59:48.697Z,955.54
2017-10-05T08:00:48.714Z,955.57
2017-10-05T08:01:48.738Z,955.6
2017-10-05T08:02:48.761Z,955.66
2017-10-05T08:03:48.782Z,955.49
2017-10-05T08:04:48.805Z,955.46
2017-10-05T08:05:48.832Z,955.48
2017-10-05T08:06:48.853Z,955.45
2017-10-05T08:07:48.884Z,955.41
2017-10-05T08:08:48.905Z,955.41
2017-10-05T08:09:48.920Z,955.46
2017-10-05T08:10:48.942Z,955.41
2017-10-05T08:11:48.964Z,955.42
2017-10-05T08:12:48.987Z,955.48
2017-10-05T08:13:49.013Z,955.49
2017-10-05T08:14:49.042Z,955.45
2017-10-05T08:15:50.257Z,955.52
2017-10-05T08:16:49.080Z,955.44
2017-10-05T08:17:49.103Z,955.39
2017-10-05T08:18:49.130Z,955.46
2017-10-05T08:19:49.148Z,955.36
2017-10-05T08:20:49.171Z,955.37
2017-10-05T08:21:49.208Z,955.3
2017-10-05T08:22:49.223Z,955.3
2017-10-05T08:23:49.243Z,955.34
2017-10-05T08:24:49.265Z,955.27
2017-10-05T08:25:49.288Z,955.25
2017-10-05T08:26:49.312Z,955.3
2017-10-05T08:27:49.335Z,955.29
2017-10-05T08:28:49.358Z,955.24
2017-10-05T08:29:49.381Z,955.33
2017-10-05T08:30:49.409Z,955.17
2017-10-05T08:31:49.429Z,955.26
2017-10-05T08:32:49.452Z,955.18
2017-10-05T08:33:49.477Z,955.12
2017-10-05T08:34:49.506Z,955.13
2017-10-05T08:35:49.522Z,955.18
2017-10-05T08:36:49.546Z,955.13
2017-10-05T08:37:49.574Z,955.13
2017-10-05T08:38:49.606Z,955.29
2017-10-05T08:39:49.616Z,955.16
2017-10-05T08:40:49.640Z,955.12
2017-10-05T08:41:49.663Z,955.17
2017-10-05T08:42:49.686Z,955.05
2017-10-05T08:43:49.711Z,955.18
2017-10-05T08:44:49.743Z,955.15
2017-10-05T08:45:49.756Z,955.22
2017-10-05T08:46:49.781Z,955.26
2017-10-05T08:47:49.804Z,955.14
2017-10-05T08:48:49.843Z,955.13
2017-10-05T08:49:49.850Z,955.24
2017-10-05T08:50:49.877Z,955.18
2017-10-05T08:51:49.897Z,955.1
2017-10-05T08:52:49.924Z,955.08
2017-10-05T08:53:49.946Z,955.1
2017-10-05T08:54:49.969Z,955.17
2017-10-05T08:55:49.993Z,955.04
2017-10-05T08:56:50.020Z,955.11
2017-10-05T08:57:50.040Z,955.04
2017-10-05T08:58:50.069Z,955.07
2017-10-05T08:59:50.091Z,954.95
2017-10-05T09:00:50.115Z,954.98
2017-10-05T09:01:50.157Z,954.93
2017-10-05T09:02:50.159Z,954.76
2017-10-05T09:03:50.186Z,954.83
2017-10-05T09:04:50.208Z,954.81
2017-10-05T09:05:50.232Z,954.76
2017-10-05T09:06:50.259Z,954.8
2017-10-05T09:07:50.281Z,954.78
2017-10-05T09:08:50.303Z,954.76
2017-10-05T09:09:50.327Z,955.16
2017-10-05T09:10:50.350Z,954.74
2017-10-05T09:11:50.374Z,954.87
2017-10-05T09:12:50.408Z,954.7
2017-10-05T09:13:50.425Z,954.7
2017-10-05T09:14:50.446Z,954.7
2017-10-05T09:15:50.472Z,954.64
2017-10-05T09:16:50.495Z,954.6
2017-10-05T09:17:50.520Z,954.73
2017-10-05T09:18:50.542Z,954.51
2017-10-05T09:19:50.569Z,954.51
2017-10-05T09:20:50.590Z,954.63
2017-10-05T09:21:50.618Z,954.56
2017-10-05T09:22:50.642Z,954.53
2017-10-05T09:23:50.664Z,954.5
2017-10-05T09:24:50.689Z,954.47
2017-10-05T09:25:50.713Z,954.53
2017-10-05T09:26:50.740Z,954.42
2017-10-05T09:27:50.762Z,954.6
2017-10-05T09:28:50.786Z,954.56
2017-10-05T09:29:50.810Z,954.55
2017-10-05T09:30:50.836Z,954.61
2017-10-05T09:31:50.860Z,954.57
2017-10-05T09:32:50.884Z,954.56
2017-10-05T09:33:50.909Z,954.5
2017-10-05T09:34:50.932Z,954.39
2017-10-05T09:35:50.956Z,954.65
2017-10-05T09:36:50.981Z,954.49
2017-10-05T09:37:51.006Z,954.37
2017-10-05T09:38:51.035Z,954.44
2017-10-05T09:39:51.056Z,954.46
2017-10-05T09:40:51.131Z,954.36
2017-10-05T09:41:51.106Z,954.37
2017-10-05T09:42:51.132Z,954.3
2017-10-05T09:43:51.154Z,954.46
2017-10-05T09:44:51.181Z,954.43
2017-10-05T09:45:51.204Z,954.41
2017-10-05T09:46:51.229Z,954.45
2017-10-05T09:47:51.256Z,954.28
2017-10-05T09:48:51.279Z,954.36
2017-10-05T09:49:51.307Z,954.4
2017-10-05T09:50:51.333Z,954.4
2017-10-05T09:51:51.353Z,954.27
2017-10-05T09:52:51.378Z,954.26
2017-10-05T09:53:51.402Z,954.31
2017-10-05T09:54:51.427Z,954.41
2017-10-05T09:55:51.501Z,954.31
2017-10-05T09:56:51.483Z,954.37
2017-10-05T09:57:51.503Z,954.1
2017-10-05T09:58:51.529Z,954.26
2017-10-05T09:59:51.552Z,954.01
2017-10-05T10:00:51.582Z,954.21
2017-10-05T10:01:51.602Z,954.28
2017-10-05T10:02:51.629Z,954.27
2017-10-05T10:03:51.653Z,954.2
2017-10-05T10:04:51.712Z,954.25
2017-10-05T10:05:51.705Z,954.22
2017-10-05T10:06:51.731Z,954.31
2017-10-05T10:07:51.766Z,954.08
2017-10-05T10:08:51.784Z,954.17
2017-10-05T10:09:51.811Z,954.27
2017-10-05T10:10:51.890Z,954.22
2017-10-05T10:11:51.866Z,954.09
2017-10-05T10:12:51.894Z,954.19
2017-10-05T10:13:51.931Z,954.13
2017-10-05T10:14:51.950Z,954.3
2017-10-05T10:15:51.978Z,954.18
2017-10-05T10:16:52.006Z,954.3
2017-10-05T10:17:52.034Z,954.13
2017-10-05T10:18:52.070Z,954.08
2017-10-05T10:19:52.094Z,954.21
2017-10-05T10:20:52.135Z,954.06
2017-10-05T10:21:52.155Z,954.08
2017-10-05T10:22:52.189Z,954.03
2017-10-05T10:23:52.212Z,954.12
2017-10-05T10:24:52.239Z,954.17
2017-10-05T10:25:52.327Z,954.34
2017-10-05T10:26:52.300Z,954.01
2017-10-05T10:27:52.330Z,954.13
2017-10-05T10:28:52.368Z,954.13
2017-10-05T10:29:52.395Z,953.99
2017-10-05T10:30:52.421Z,954.08
2017-10-05T10:31:52.451Z,954
2017-10-05T10:32:52.481Z,953.99
2017-10-05T10:33:52.511Z,954.01
2017-10-05T10:34:52.541Z,954.12
2017-10-05T10:35:52.579Z,954.02
2017-10-05T10:36:52.603Z,953.92
2017-10-05T10:37:52.637Z,954.12
2017-10-05T10:38:52.667Z,954.36
2017-10-05T10:39:52.697Z,953.97
2017-10-05T10:40:52.779Z,953.96
2017-10-05T10:41:52.758Z,954
2017-10-05T10:42:52.791Z,953.72
2017-10-05T10:43:52.829Z,954.05
2017-10-05T10:44:52.852Z,954
2017-10-05T10:45:52.882Z,953.93
2017-10-05T10:46:52.917Z,954.11
2017-10-05T10:47:52.944Z,954.12
2017-10-05T10:48:52.975Z,953.98
2017-10-05T10:49:53.013Z,953.88
2017-10-05T10:50:53.038Z,953.98
2017-10-05T10:51:53.069Z,953.88
2017-10-05T10:52:53.103Z,953.95
2017-10-05T10:53:53.133Z,954.06
2017-10-05T10:54:53.164Z,953.96
2017-10-05T10:55:53.194Z,954.11
2017-10-05T10:56:53.226Z,954
2017-10-05T10:57:53.257Z,953.98
2017-10-05T10:58:53.297Z,954.05
2017-10-05T10:59:53.322Z,953.94
2017-10-05T11:00:53.353Z,954.14
2017-10-05T11:01:53.393Z,953.87
2017-10-05T11:02:53.418Z,954.04
2017-10-05T11:03:53.449Z,953.9
2017-10-05T11:04:53.479Z,954.03
2017-10-05T11:05:53.513Z,953.96
2017-10-05T11:06:53.544Z,954.04
2017-10-05T11:07:53.574Z,953.9
2017-10-05T11:08:53.609Z,953.85
2017-10-05T11:09:53.640Z,953.7
2017-10-05T11:10:53.671Z,953.79
2017-10-05T11:11:53.703Z,953.58
2017-10-05T11:12:53.744Z,953.91
2017-10-05T11:13:53.771Z,953.93
2017-10-05T11:14:53.803Z,953.83
2017-10-05T11:15:53.836Z,953.82
2017-10-05T11:16:53.868Z,953.84
2017-10-05T11:17:53.917Z,953.78
2017-10-05T11:18:53.932Z,953.72
2017-10-05T11:19:53.967Z,953.71
2017-10-05T11:20:53.995Z,953.76
2017-10-05T11:21:54.025Z,953.67
2017-10-05T11:22:54.059Z,953.63
2017-10-05T11:23:54.097Z,953.62
2017-10-05T11:24:54.125Z,953.75
2017-10-05T11:25:54.156Z,953.86
2017-10-05T11:26:54.191Z,953.75
2017-10-05T11:27:54.223Z,953.68
2017-10-05T11:28:54.261Z,953.7
2017-10-05T11:29:54.290Z,953.81
2017-10-05T11:30:54.321Z,953.63
2017-10-05T11:31:54.407Z,953.64
2017-10-05T11:32:54.387Z,953.57
2017-10-05T11:33:54.418Z,953.9
2017-10-05T11:34:54.453Z,953.82
2017-10-05T11:35:54.487Z,953.75
2017-10-05T11:36:54.528Z,953.85
2017-10-05T11:37:54.552Z,953.94
2017-10-05T11:38:54.586Z,953.63
2017-10-05T11:39:54.689Z,953.66
2017-10-05T11:40:54.657Z,953.64
2017-10-05T11:41:54.684Z,953.71
2017-10-05T11:42:54.724Z,953.82
2017-10-05T11:43:54.776Z,953.83
2017-10-05T11:44:54.785Z,953.77
2017-10-05T11:45:54.819Z,953.74
2017-10-05T11:46:54.851Z,953.64
2017-10-05T11:47:54.884Z,953.71
2017-10-05T11:48:54.919Z,953.7
2017-10-05T11:49:54.955Z,953.76
2017-10-05T11:50:54.986Z,953.77
2017-10-05T11:51:55.018Z,953.55
2017-10-05T11:52:55.052Z,953.39
2017-10-05T11:53:55.088Z,953.58
2017-10-05T11:54:55.118Z,953.76
2017-10-05T11:55:55.153Z,953.48
2017-10-05T11:56:55.186Z,953.43
2017-10-05T11:57:55.218Z,953.46
2017-10-05T11:58:55.266Z,953.34
2017-10-05T11:59:55.287Z,953.37
2017-10-05T12:00:55.325Z,953.47
2017-10-05T12:01:55.353Z,953.43
2017-10-05T12:02:55.388Z,953.45
2017-10-05T12:03:55.426Z,953.41
2017-10-05T12:04:55.456Z,953.52
2017-10-05T12:05:55.490Z,953.52
2017-10-05T12:06:55.524Z,953.57
2017-10-05T12:07:55.559Z,953.57
2017-10-05T12:08:55.597Z,953.48
2017-10-05T12:09:55.626Z,953.57
2017-10-05T12:10:55.660Z,953.47
2017-10-05T12:11:55.694Z,953.44
2017-10-05T12:12:55.729Z,953.4
2017-10-05T12:13:55.762Z,953.33
2017-10-05T12:14:55.796Z,953.26
2017-10-05T12:15:55.839Z,953.5
2017-10-05T12:16:55.866Z,953.44
2017-10-05T12:17:55.900Z,953.38
2017-10-05T12:18:55.934Z,953.49
2017-10-05T12:19:55.966Z,953.49
2017-10-05T12:20:56.015Z,953.52
2017-10-05T12:21:56.037Z,953.75
2017-10-05T12:22:56.126Z,953.13
2017-10-05T12:23:56.104Z,953.74
2017-10-05T12:24:56.142Z,953.49
2017-10-05T12:25:56.185Z,953.36
2017-10-05T12:26:56.206Z,953.47
2017-10-05T12:27:56.250Z,953.5
2017-10-05T12:28:56.275Z,953.13
2017-10-05T12:29:56.311Z,953.03
2017-10-05T12:30:56.345Z,953.49
2017-10-05T12:31:56.379Z,952.72